createdAt,value
2023-03-11T00:04:22.300Z,44.3
2023-03-11T00:11:54.678Z,44.3
2023-03-11T00:19:27.013Z,44.3
2023-03-11T00:26:59.336Z,44.3
2023-03-11T00:34:31.715Z,44.2
2023-03-11T00:42:04.030Z,44.2
2023-03-11T00:49:36.352Z,44.2
2023-03-11T00:57:08.677Z,44.2
2023-03-11T01:04:41.021Z,44.2
2023-03-11T01:12:13.416Z,44.1
2023-03-11T01:19:45.738Z,44.2
2023-03-11T01:27:18.062Z,44.2
2023-03-11T01:34:50.384Z,44.1
2023-03-11T01:42:22.681Z,44.1
2023-03-11T01:49:54.992Z,44.2
2023-03-11T01:57:27.294Z,44.2
2023-03-11T02:04:59.610Z,44.1
2023-03-11T02:12:31.928Z,44.1
2023-03-11T02:20:04.255Z,44.1
2023-03-11T02:27:36.575Z,44.1
2023-03-11T02:35:08.913Z,44.0
2023-03-11T02:42:41.242Z,44.0
2023-03-11T02:50:13.538Z,44.1
2023-03-11T02:57:45.835Z,44.4
2023-03-11T03:05:18.157Z,44.0
2023-03-11T03:12:50.472Z,44.0
2023-03-11T03:20:22.820Z,44.1
2023-03-11T03:27:55.168Z,44.0
2023-03-11T03:35:27.480Z,44.1
2023-03-11T03:42:59.779Z,44.1
2023-03-11T03:50:32.107Z,44.0
2023-03-11T03:58:04.438Z,44.1
2023-03-11T04:05:36.761Z,44.1
2023-03-11T04:13:09.074Z,44.1
2023-03-11T04:20:41.401Z,44.1
2023-03-11T04:28:13.726Z,44.1
2023-03-11T04:35:46.062Z,44.0
2023-03-11T04:43:18.408Z,44.0
2023-03-11T04:50:50.717Z,44.0
2023-03-11T04:58:23.023Z,44.0
2023-03-11T05:05:55.325Z,44.0
2023-03-11T05:13:27.632Z,44.1
2023-03-11T05:20:59.982Z,44.1
2023-03-11T05:28:32.308Z,44.1
2023-03-11T05:36:04.693Z,44.1
2023-03-11T05:43:37.080Z,44.1
2023-03-11T05:51:09.403Z,44.1
2023-03-11T05:58:41.703Z,44.1
2023-03-11T06:06:14.067Z,44.0
2023-03-11T06:13:46.926Z,44.0
2023-03-11T06:21:19.434Z,44.1
2023-03-11T06:27:21.750Z,44.1
2023-03-11T06:28:09.074Z,44.1
2023-03-11T06:28:56.365Z,44.1
2023-03-11T06:29:43.685Z,44.0
2023-03-11T06:30:33.476Z,44.1
2023-03-11T06:31:20.814Z,44.1
2023-03-11T06:32:08.182Z,44.4
2023-03-11T06:32:55.531Z,44.5
2023-03-11T06:33:42.868Z,44.8
2023-03-11T06:34:30.257Z,45.1
2023-03-11T06:35:17.582Z,45.3
2023-03-11T06:36:04.939Z,45.8
2023-03-11T06:36:52.292Z,45.9
2023-03-11T06:44:24.607Z,45.9
2023-03-11T06:46:29.901Z,46.1
2023-03-11T06:47:17.246Z,46.0
2023-03-11T06:48:04.568Z,45.9
2023-03-11T06:48:51.885Z,46.0
2023-03-11T06:49:39.186Z,45.9
2023-03-11T06:50:26.501Z,46.4
2023-03-11T06:51:13.820Z,45.9
2023-03-11T06:52:01.133Z,45.7
2023-03-11T06:52:48.496Z,45.5
2023-03-11T06:53:35.807Z,45.4
2023-03-11T06:54:23.101Z,45.4
2023-03-11T06:55:10.581Z,45.3
2023-03-11T06:55:57.885Z,45.2
2023-03-11T06:56:45.202Z,45.2
2023-03-11T06:57:32.523Z,45.2
2023-03-11T06:58:19.854Z,45.1
2023-03-11T06:59:07.169Z,45.1
2023-03-11T06:59:54.496Z,45.1
2023-03-11T07:00:42.851Z,45.0
2023-03-11T07:01:30.262Z,45.0
2023-03-11T07:02:17.611Z,45.5
2023-03-11T07:03:04.911Z,45.2
2023-03-11T07:03:52.254Z,45.2
2023-03-11T07:04:39.677Z,45.2
2023-03-11T07:05:26.991Z,45.3
2023-03-11T07:06:14.298Z,45.5
2023-03-11T07:07:01.655Z,45.3
2023-03-11T07:07:48.994Z,45.3
2023-03-11T07:08:36.300Z,45.3
2023-03-11T07:09:23.609Z,45.2
2023-03-11T07:10:10.941Z,45.2
2023-03-11T07:10:58.253Z,45.1
2023-03-11T07:11:45.575Z,45.1
2023-03-11T07:12:32.881Z,45.2
2023-03-11T07:13:20.200Z,45.2
2023-03-11T07:14:07.508Z,45.2
2023-03-11T07:14:54.854Z,45.2
2023-03-11T07:15:42.202Z,45.1
2023-03-11T07:16:29.563Z,45.3
2023-03-11T07:17:16.885Z,45.4
2023-03-11T07:18:04.195Z,45.4
2023-03-11T07:18:51.512Z,45.3
2023-03-11T07:19:38.811Z,45.2
2023-03-11T07:20:26.126Z,45.3
2023-03-11T07:21:13.465Z,45.2
2023-03-11T07:22:00.799Z,45.1
2023-03-11T07:22:48.120Z,45.1
2023-03-11T07:23:35.430Z,45.2
2023-03-11T07:24:22.732Z,45.1
2023-03-11T07:25:10.045Z,45.1
2023-03-11T07:25:57.362Z,45.0
2023-03-11T07:26:44.754Z,45.0
2023-03-11T07:27:32.086Z,45.0
2023-03-11T07:28:19.407Z,45.0
2023-03-11T07:29:06.740Z,44.9
2023-03-11T07:29:54.239Z,44.8
2023-03-11T07:30:41.581Z,44.8
2023-03-11T07:31:28.917Z,44.8
2023-03-11T07:32:16.589Z,44.7
2023-03-11T07:33:04.003Z,44.8
2023-03-11T07:33:51.594Z,44.8
2023-03-11T07:34:38.901Z,44.7
2023-03-11T07:35:26.215Z,44.7
2023-03-11T07:36:14.026Z,44.6
2023-03-11T07:37:01.582Z,44.5
2023-03-11T07:37:48.908Z,44.6
2023-03-11T07:38:36.235Z,44.7
2023-03-11T07:39:23.537Z,44.6
2023-03-11T07:40:10.833Z,44.5
2023-03-11T07:40:58.298Z,44.5
2023-03-11T07:41:45.599Z,44.4
2023-03-11T07:42:32.907Z,44.5
2023-03-11T07:43:20.203Z,44.5
2023-03-11T07:44:09.831Z,44.5
2023-03-11T07:44:57.416Z,44.4
2023-03-11T07:45:44.744Z,44.3
2023-03-11T07:46:32.127Z,44.3
2023-03-11T07:47:19.729Z,44.3
2023-03-11T07:48:07.057Z,44.3
2023-03-11T07:48:54.402Z,44.3
2023-03-11T07:49:41.716Z,44.3
2023-03-11T07:50:29.277Z,44.4
2023-03-11T07:51:16.600Z,44.4
2023-03-11T07:52:03.933Z,44.4
2023-03-11T07:52:51.341Z,44.4
2023-03-11T07:53:38.636Z,45.0
2023-03-11T07:54:25.947Z,44.3
2023-03-11T07:55:13.562Z,44.3
2023-03-11T07:56:00.861Z,44.3
2023-03-11T07:56:48.181Z,44.3
2023-03-11T07:57:35.618Z,44.3
2023-03-11T07:58:23.152Z,44.2
2023-03-11T07:59:10.474Z,44.2
2023-03-11T07:59:57.925Z,44.2
2023-03-11T08:00:45.256Z,44.3
2023-03-11T08:01:32.579Z,44.3
2023-03-11T08:02:20.073Z,44.2
2023-03-11T08:03:07.422Z,44.2
2023-03-11T08:03:54.786Z,44.2
2023-03-11T08:04:42.178Z,44.2
2023-03-11T08:05:29.507Z,44.2
2023-03-11T08:06:16.810Z,44.2
2023-03-11T08:07:04.267Z,44.2
2023-03-11T08:07:51.573Z,44.3
2023-03-11T08:08:38.897Z,44.2
2023-03-11T08:09:26.345Z,44.2
2023-03-11T08:10:13.668Z,44.2
2023-03-11T08:11:01.041Z,44.3
2023-03-11T08:11:49.728Z,44.2
2023-03-11T08:12:37.201Z,44.2
2023-03-11T08:13:24.496Z,44.1
2023-03-11T08:14:11.799Z,44.1
2023-03-11T08:14:59.145Z,44.1
2023-03-11T08:15:46.489Z,44.1
2023-03-11T08:16:33.803Z,44.1
2023-03-11T08:17:21.095Z,44.2
2023-03-11T08:18:10.938Z,44.2
2023-03-11T08:18:58.382Z,44.1
2023-03-11T08:19:45.742Z,44.1
2023-03-11T08:20:33.174Z,44.1
2023-03-11T08:21:20.533Z,44.1
2023-03-11T08:22:07.898Z,44.1
2023-03-11T08:22:58.350Z,44.6
2023-03-11T08:23:45.902Z,44.1
2023-03-11T08:24:33.295Z,44.0
2023-03-11T08:25:20.620Z,44.1
2023-03-11T08:26:07.944Z,44.0
2023-03-11T08:26:55.350Z,44.6
2023-03-11T08:27:42.649Z,44.1
2023-03-11T08:28:30.377Z,44.1
2023-03-11T08:29:17.698Z,44.1
2023-03-11T08:30:05.078Z,44.3
2023-03-11T08:30:52.456Z,44.0
2023-03-11T09:02:34.333Z,48.1
2023-03-11T09:03:21.555Z,48.9
2023-03-11T09:04:25.264Z,48.6
2023-03-11T09:05:12.632Z,48.7
2023-03-11T09:05:59.922Z,48.7
2023-03-11T09:06:47.141Z,48.3
2023-03-11T09:07:34.569Z,48.1
2023-03-11T09:08:21.763Z,47.8
2023-03-11T09:09:08.964Z,47.5
2023-03-11T09:09:56.376Z,47.3
2023-03-11T09:10:43.572Z,46.9
2023-03-11T09:11:30.801Z,46.6
2023-03-11T09:12:18.199Z,46.3
2023-03-11T09:13:05.415Z,46.3
2023-03-11T09:13:52.620Z,46.1
2023-03-11T09:15:03.680Z,46.0
2023-03-11T09:15:51.055Z,46.0
2023-03-11T09:16:38.416Z,45.8
2023-03-11T09:17:25.745Z,45.7
2023-03-11T09:18:13.185Z,45.5
2023-03-11T09:19:00.506Z,45.4
2023-03-11T09:19:47.702Z,45.4
2023-03-11T09:20:35.130Z,45.2
2023-03-11T09:21:22.347Z,45.1
2023-03-11T09:22:09.542Z,45.0
2023-03-11T09:22:57.008Z,45.0
2023-03-11T09:23:44.772Z,45.0
2023-03-11T09:24:32.009Z,45.0
2023-03-11T09:25:19.402Z,45.0
2023-03-11T09:26:06.616Z,44.9
2023-03-11T09:26:53.831Z,44.7
2023-03-11T09:27:41.290Z,44.7
2023-03-11T09:28:28.504Z,44.7
2023-03-11T09:29:15.715Z,44.7
2023-03-11T09:30:03.157Z,44.7
2023-03-11T09:30:50.375Z,44.4
2023-03-11T09:31:37.641Z,44.3
2023-03-11T09:32:25.035Z,44.2
2023-03-11T09:33:12.321Z,44.2
2023-03-11T09:33:59.528Z,44.4
2023-03-11T09:34:46.944Z,44.4
2023-03-11T09:35:34.214Z,44.4
2023-03-11T09:36:21.472Z,44.4
2023-03-11T09:37:08.873Z,44.5
2023-03-11T09:37:56.098Z,44.5
2023-03-11T09:38:43.321Z,44.3
2023-03-11T09:39:30.712Z,44.3
2023-03-11T09:40:17.934Z,44.3
2023-03-11T09:41:05.153Z,44.1
2023-03-11T09:41:58.509Z,44.1
2023-03-11T09:42:46.173Z,44.2
2023-03-11T09:43:33.577Z,44.0
2023-03-11T09:44:20.800Z,44.1
2023-03-11T09:45:45.622Z,44.2
2023-03-11T09:46:33.045Z,44.2
2023-03-11T09:47:20.291Z,44.3
2023-03-11T09:48:07.496Z,44.3
2023-03-11T09:48:54.905Z,44.4
2023-03-11T09:49:42.115Z,44.3
2023-03-11T09:50:29.353Z,44.2
2023-03-11T09:51:16.744Z,44.2
2023-03-11T09:52:03.953Z,44.4
2023-03-11T09:52:51.183Z,44.2
2023-03-11T09:53:38.587Z,44.2
2023-03-11T09:54:26.110Z,44.2
2023-03-11T09:55:13.324Z,44.2
2023-03-11T09:56:00.789Z,44.3
2023-03-11T09:56:47.997Z,44.3
2023-03-11T09:57:35.391Z,44.3
2023-03-11T09:58:22.631Z,44.3
2023-03-11T09:59:09.849Z,44.3
2023-03-11T09:59:57.044Z,44.3
2023-03-11T10:00:45.016Z,44.3
2023-03-11T10:01:32.500Z,44.3
2023-03-11T10:02:19.862Z,44.3
2023-03-11T10:03:07.158Z,44.3
2023-03-11T10:03:54.557Z,44.3
2023-03-11T10:04:41.759Z,44.3
2023-03-11T10:05:28.982Z,44.2
2023-03-11T10:06:16.361Z,44.2
2023-03-11T10:07:03.591Z,44.1
2023-03-11T10:07:50.823Z,44.1
2023-03-11T10:08:38.218Z,44.0
2023-03-11T10:09:25.425Z,44.0
2023-03-11T10:10:12.866Z,44.1
2023-03-11T10:11:00.095Z,44.1
2023-03-11T10:11:47.299Z,44.1
2023-03-11T10:12:34.538Z,44.1
2023-03-11T10:13:21.905Z,44.1
2023-03-11T10:14:09.121Z,44.1
2023-03-11T10:14:56.333Z,44.1
2023-03-11T10:15:43.749Z,44.2
2023-03-11T10:16:30.990Z,44.2
2023-03-11T10:17:18.221Z,44.2
2023-03-11T10:18:05.660Z,44.2
2023-03-11T10:18:52.859Z,44.1
2023-03-11T10:19:40.173Z,44.1
2023-03-11T10:20:27.634Z,44.1
2023-03-11T10:21:14.842Z,44.2
2023-03-11T10:22:02.200Z,44.1
2023-03-11T10:22:49.485Z,44.0
2023-03-11T10:23:36.681Z,44.0
2023-03-11T10:24:23.897Z,44.1
2023-03-11T10:25:11.338Z,44.0
2023-03-11T10:25:58.532Z,43.9
2023-03-11T10:26:45.738Z,43.9
2023-03-11T10:27:33.173Z,43.9
2023-03-11T10:28:20.377Z,43.9
2023-03-11T10:29:07.625Z,43.9
2023-03-11T10:29:55.003Z,43.8
2023-03-11T10:30:42.285Z,43.8
2023-03-11T10:31:29.584Z,43.8
2023-03-11T10:32:17.401Z,43.8
2023-03-11T10:33:05.045Z,43.9
2023-03-11T10:33:52.723Z,44.4
2023-03-11T10:34:39.986Z,43.9
2023-03-11T10:35:27.369Z,43.9
2023-03-11T10:37:21.811Z,43.9
2023-03-11T10:38:09.132Z,44.0
2023-03-11T10:38:56.325Z,43.8
2023-03-11T10:39:43.533Z,43.7
2023-03-11T10:40:30.938Z,43.9
2023-03-11T10:41:18.179Z,43.8
2023-03-11T10:42:05.400Z,43.8
2023-03-11T10:42:52.932Z,43.8
2023-03-11T10:43:40.176Z,43.8
2023-03-11T10:44:27.640Z,43.7
2023-03-11T10:45:14.845Z,43.7
2023-03-11T10:46:02.066Z,43.7
2023-03-11T10:46:49.282Z,43.7
2023-03-11T10:47:36.704Z,43.7
2023-03-11T10:48:23.907Z,43.6
2023-03-11T10:49:11.138Z,43.6
2023-03-11T10:49:58.552Z,43.8
2023-03-11T10:50:45.763Z,43.8
2023-03-11T10:51:32.965Z,43.7
2023-03-11T10:52:20.631Z,43.7
2023-03-11T10:53:07.879Z,43.7
2023-03-11T10:53:55.113Z,43.8
2023-03-11T10:54:42.682Z,43.8
2023-03-11T10:55:29.965Z,43.8
2023-03-11T10:56:17.176Z,43.8
2023-03-11T10:57:04.574Z,43.8
2023-03-11T10:57:51.864Z,43.8
2023-03-11T10:58:39.068Z,43.8
2023-03-11T10:59:26.490Z,43.8
2023-03-11T11:00:13.718Z,43.9
2023-03-11T11:01:00.958Z,43.9
2023-03-11T11:01:48.332Z,44.0
2023-03-11T11:02:53.358Z,44.0
2023-03-11T11:03:40.686Z,44.0
2023-03-11T11:04:27.932Z,44.0
2023-03-11T11:05:15.198Z,44.0
2023-03-11T11:06:33.811Z,44.0
2023-03-11T11:07:21.043Z,44.0
2023-03-11T11:08:08.344Z,44.0
2023-03-11T11:08:55.555Z,44.0
2023-03-11T11:09:42.754Z,44.0
2023-03-11T11:10:30.203Z,44.0
2023-03-11T11:11:17.399Z,44.1
2023-03-11T11:12:04.605Z,43.9
2023-03-11T11:12:52.037Z,43.9
2023-03-11T11:13:39.284Z,43.8
2023-03-11T11:14:26.496Z,44.3
2023-03-11T11:15:13.950Z,43.9
2023-03-11T11:16:01.169Z,43.9
2023-03-11T11:16:48.896Z,43.8
2023-03-11T11:17:36.146Z,43.7
2023-03-11T11:18:23.354Z,43.8
2023-03-11T11:19:10.576Z,43.8
2023-03-11T11:19:58.025Z,44.0
2023-03-11T11:20:45.224Z,43.9
2023-03-11T11:21:32.467Z,43.9
2023-03-11T11:22:19.870Z,43.7
2023-03-11T11:23:07.089Z,43.6
2023-03-11T11:23:54.289Z,43.6
2023-03-11T11:24:41.697Z,43.6
2023-03-11T11:25:28.930Z,43.5
2023-03-11T11:26:16.163Z,43.6
2023-03-11T11:27:03.572Z,43.5
2023-03-11T11:27:50.787Z,43.6
2023-03-11T11:28:38.007Z,43.7
2023-03-11T11:29:25.405Z,43.7
2023-03-11T11:30:12.637Z,43.8
2023-03-11T11:30:59.879Z,43.7
2023-03-11T11:31:47.242Z,43.7
2023-03-11T11:32:34.500Z,43.7
2023-03-11T11:33:21.804Z,43.6
2023-03-11T11:34:09.237Z,43.6
2023-03-11T11:34:56.462Z,43.7
2023-03-11T11:35:43.686Z,43.5
2023-03-11T11:36:31.072Z,43.5
2023-03-11T11:37:18.304Z,43.5
2023-03-11T11:38:05.514Z,43.5
2023-03-11T11:38:52.916Z,43.5
2023-03-11T11:39:40.146Z,43.5
2023-03-11T11:40:27.451Z,43.5
2023-03-11T11:41:14.818Z,43.4
2023-03-11T11:42:02.032Z,43.4
2023-03-11T11:42:49.262Z,43.3
2023-03-11T11:43:36.703Z,43.4
2023-03-11T11:44:23.910Z,43.4
2023-03-11T11:45:11.131Z,43.5
2023-03-11T11:45:58.593Z,43.5
2023-03-11T11:46:45.842Z,43.4
2023-03-11T11:47:33.047Z,43.3
2023-03-11T11:48:20.464Z,43.2
2023-03-11T11:49:07.683Z,43.2
2023-03-11T11:49:54.896Z,43.2
2023-03-11T11:50:42.323Z,43.2
2023-03-11T11:51:29.550Z,43.2
2023-03-11T11:52:16.751Z,43.2
2023-03-11T11:53:04.162Z,43.5
2023-03-11T11:53:51.371Z,43.5
2023-03-11T11:54:38.601Z,43.2
2023-03-11T11:55:26.015Z,43.2
2023-03-11T11:56:13.237Z,43.2
2023-03-11T11:57:00.447Z,43.2
2023-03-11T11:57:47.875Z,43.2
2023-03-11T11:58:35.069Z,43.1
2023-03-11T11:59:22.266Z,43.1
2023-03-11T12:00:09.690Z,43.2
2023-03-11T12:00:56.924Z,43.2
2023-03-11T12:01:44.146Z,43.2
2023-03-11T12:02:31.550Z,43.2
2023-03-11T12:03:18.811Z,43.3
2023-03-11T12:04:06.067Z,43.3
2023-03-11T12:04:53.484Z,43.2
2023-03-11T12:05:40.777Z,43.3
2023-03-11T12:06:28.007Z,43.3
2023-03-11T12:07:15.608Z,43.3
2023-03-11T12:08:02.929Z,43.3
2023-03-11T12:08:50.239Z,43.4
2023-03-11T12:09:37.659Z,43.3
2023-03-11T12:10:24.958Z,43.4
2023-03-11T12:11:12.281Z,43.3
2023-03-11T12:11:59.888Z,43.3
2023-03-11T12:12:47.203Z,43.4
2023-03-11T12:13:34.509Z,43.4
2023-03-11T12:14:21.905Z,43.4
2023-03-11T12:15:09.227Z,43.4
2023-03-11T12:15:56.591Z,43.4
2023-03-11T12:16:44.006Z,43.4
2023-03-11T12:17:31.313Z,43.3
2023-03-11T12:18:18.709Z,43.3
2023-03-11T12:19:06.045Z,43.3
2023-03-11T12:19:53.372Z,43.2
2023-03-11T12:20:40.682Z,43.2
2023-03-11T12:21:28.127Z,43.3
2023-03-11T12:22:15.461Z,43.3
2023-03-11T12:23:02.762Z,43.4
2023-03-11T12:23:50.203Z,43.4
2023-03-11T12:24:38.072Z,43.3
2023-03-11T12:25:25.378Z,43.2
2023-03-11T12:26:12.825Z,43.1
2023-03-11T12:27:00.128Z,43.6
2023-03-11T12:27:47.477Z,43.1
2023-03-11T12:28:34.864Z,43.0
2023-03-11T12:29:22.185Z,43.0
2023-03-11T12:30:09.494Z,43.0
2023-03-11T12:30:57.153Z,43.0
2023-03-11T12:31:44.471Z,43.0
2023-03-11T12:32:31.879Z,43.0
2023-03-11T12:33:19.217Z,43.0
2023-03-11T12:34:06.531Z,43.0
2023-03-11T12:34:53.836Z,42.9
2023-03-11T12:35:41.301Z,43.0
2023-03-11T12:36:28.633Z,43.0
2023-03-11T12:37:15.961Z,43.0
2023-03-11T12:38:03.385Z,43.0
2023-03-11T12:38:50.718Z,42.9
2023-03-11T12:39:38.020Z,42.9
2023-03-11T12:40:25.599Z,42.9
2023-03-11T12:41:12.908Z,42.9
2023-03-11T12:42:00.276Z,43.0
2023-03-11T12:42:47.645Z,43.0
2023-03-11T12:43:34.946Z,43.0
2023-03-11T12:44:22.280Z,42.9
2023-03-11T12:45:09.684Z,42.9
2023-03-11T12:45:56.992Z,43.0
2023-03-11T12:46:44.333Z,43.0
2023-03-11T12:47:33.317Z,43.0
2023-03-11T12:48:21.913Z,43.0
2023-03-11T12:49:09.224Z,43.0
2023-03-11T12:49:56.557Z,43.6
2023-03-11T12:50:43.858Z,43.0
2023-03-11T12:51:31.236Z,43.0
2023-03-11T12:52:18.534Z,43.0
2023-03-11T12:53:05.845Z,43.0
2023-03-11T12:53:53.202Z,42.9
2023-03-11T12:54:40.517Z,42.9
2023-03-11T12:55:27.853Z,42.9
2023-03-11T12:56:15.202Z,42.9
2023-03-11T12:57:02.513Z,42.9
2023-03-11T12:57:49.925Z,42.9
2023-03-11T12:58:37.225Z,42.9
2023-03-11T12:59:24.536Z,42.8
2023-03-11T13:00:11.881Z,42.9
2023-03-11T13:00:59.207Z,43.4
2023-03-11T13:01:46.584Z,42.9
2023-03-11T13:02:33.968Z,42.9
2023-03-11T13:03:21.343Z,42.9
2023-03-11T13:04:08.643Z,42.9
2023-03-11T13:04:55.988Z,42.9
2023-03-11T13:05:43.311Z,42.9
2023-03-11T13:06:30.607Z,42.9
2023-03-11T13:07:17.920Z,42.9
2023-03-11T13:08:05.269Z,42.9
2023-03-11T13:08:52.736Z,42.9
2023-03-11T13:09:40.068Z,42.9
2023-03-11T13:10:27.424Z,42.9
2023-03-11T13:11:14.756Z,42.9
2023-03-11T13:12:02.069Z,42.9
2023-03-11T13:12:49.411Z,42.9
2023-03-11T13:13:36.752Z,42.8
2023-03-11T13:14:24.098Z,42.8
2023-03-11T13:15:11.490Z,42.7
2023-03-11T13:15:58.818Z,42.7
2023-03-11T13:16:46.128Z,42.7
2023-03-11T13:17:33.461Z,42.7
2023-03-11T13:18:20.774Z,42.7
2023-03-11T13:19:08.071Z,43.2
2023-03-11T13:19:55.409Z,42.7
2023-03-11T13:20:42.863Z,42.7
2023-03-11T13:21:30.416Z,42.7
2023-03-11T13:22:17.866Z,42.7
2023-03-11T13:23:05.165Z,42.7
2023-03-11T13:23:52.484Z,42.7
2023-03-11T13:24:39.795Z,42.7
2023-03-11T13:25:27.155Z,42.7
2023-03-11T13:26:14.462Z,42.7
2023-03-11T13:27:04.403Z,42.7
2023-03-11T13:27:51.930Z,42.7
2023-03-11T13:28:39.261Z,42.7
2023-03-11T13:29:26.562Z,42.6
2023-03-11T13:30:13.888Z,42.6
2023-03-11T13:31:01.213Z,42.5
2023-03-11T13:31:48.566Z,42.5
2023-03-11T13:32:35.927Z,42.5
2023-03-11T13:33:23.265Z,42.6
2023-03-11T13:34:10.580Z,42.6
2023-03-11T13:34:57.938Z,42.6
2023-03-11T13:35:45.285Z,42.6
2023-03-11T13:36:32.594Z,42.6
2023-03-11T13:37:19.917Z,42.6
2023-03-11T13:38:07.267Z,42.6
2023-03-11T13:38:54.577Z,42.6
2023-03-11T13:39:41.914Z,42.6
2023-03-11T13:40:29.217Z,42.6
2023-03-11T13:41:16.529Z,42.5
2023-03-11T13:42:03.878Z,42.5
2023-03-11T13:42:51.211Z,42.5
2023-03-11T13:43:38.527Z,42.6
2023-03-11T13:44:25.839Z,42.5
2023-03-11T13:45:13.164Z,42.5
2023-03-11T13:46:00.766Z,42.6
2023-03-11T13:46:48.115Z,42.5
2023-03-11T13:47:35.416Z,42.4
2023-03-11T13:48:22.737Z,42.4
2023-03-11T13:49:10.088Z,42.4
2023-03-11T13:49:57.401Z,42.3
2023-03-11T13:50:44.811Z,42.3
2023-03-11T13:51:32.156Z,42.3
2023-03-11T13:52:19.541Z,42.2
2023-03-11T13:53:06.847Z,42.2
2023-03-11T13:53:54.165Z,42.3
2023-03-11T13:54:41.466Z,42.3
2023-03-11T13:55:29.428Z,42.3
2023-03-11T13:56:17.116Z,42.3
2023-03-11T13:57:04.709Z,42.2
2023-03-11T13:57:52.055Z,42.3
2023-03-11T13:58:39.374Z,42.3
2023-03-11T13:59:26.889Z,42.3
2023-03-11T14:00:15.746Z,42.3
2023-03-11T14:01:03.248Z,42.3
2023-03-11T14:01:50.616Z,42.3
2023-03-11T14:02:37.929Z,42.4
2023-03-11T14:03:25.287Z,42.4
2023-03-11T14:04:12.670Z,42.4
2023-03-11T14:05:00.053Z,42.3
2023-03-11T14:05:47.403Z,42.3
2023-03-11T14:06:34.782Z,42.3
2023-03-11T14:07:22.150Z,42.2
2023-03-11T14:08:09.480Z,42.2
2023-03-11T14:08:56.889Z,42.2
2023-03-11T14:09:44.211Z,42.3
2023-03-11T14:10:31.763Z,42.3
2023-03-11T14:11:19.092Z,42.3
2023-03-11T14:18:51.399Z,42.3
2023-03-11T14:26:23.703Z,42.6
2023-03-11T14:33:56.040Z,42.8
2023-03-11T14:41:28.417Z,42.9
2023-03-11T14:49:00.776Z,43.1
2023-03-11T14:56:33.098Z,43.2
2023-03-11T15:04:05.429Z,43.4
2023-03-11T15:11:38.341Z,43.4
2023-03-11T15:19:10.653Z,43.6
2023-03-11T15:26:42.978Z,43.6
2023-03-11T15:34:15.275Z,43.6
2023-03-11T15:41:47.785Z,43.6
2023-03-11T15:49:20.090Z,43.7
2023-03-11T15:56:52.406Z,43.6
2023-03-11T16:04:24.800Z,43.6
2023-03-11T16:11:57.239Z,43.6
2023-03-11T16:19:29.551Z,43.5
2023-03-11T16:27:01.881Z,43.5
2023-03-11T16:34:34.187Z,43.4
2023-03-11T16:42:06.512Z,43.4
2023-03-11T16:49:38.828Z,43.3
2023-03-11T16:57:11.147Z,43.3
2023-03-11T17:04:43.485Z,43.2
2023-03-11T17:12:15.809Z,43.1
2023-03-11T17:19:48.133Z,43.0
2023-03-11T17:27:20.454Z,43.0
2023-03-11T17:34:52.773Z,43.0
2023-03-11T17:42:25.088Z,42.9
2023-03-11T17:49:57.439Z,42.9
2023-03-11T17:57:33.571Z,42.8
2023-03-11T18:05:09.766Z,42.7
2023-03-11T18:12:42.108Z,42.6
2023-03-11T18:20:14.404Z,42.4
2023-03-11T18:27:46.728Z,42.2
2023-03-11T18:35:19.042Z,42.2
2023-03-11T18:42:51.363Z,42.3
2023-03-11T18:50:23.695Z,42.1
2023-03-11T18:57:56.013Z,42.0
2023-03-11T19:05:28.336Z,42.0
2023-03-11T19:13:00.653Z,41.9
2023-03-11T19:20:33.015Z,41.8
2023-03-11T19:28:05.336Z,41.6
2023-03-11T19:35:37.717Z,41.6
2023-03-11T19:43:10.052Z,41.5
2023-03-11T19:50:42.412Z,41.4
2023-03-11T19:58:14.744Z,41.9
2023-03-11T20:05:47.125Z,41.3
2023-03-11T20:13:19.490Z,41.0
2023-03-11T20:20:51.849Z,41.0
2023-03-11T20:28:24.150Z,40.7
2023-03-11T20:35:56.579Z,40.7
2023-03-11T20:43:29.003Z,40.7
2023-03-11T20:51:01.369Z,40.7
2023-03-11T20:58:33.845Z,40.5
2023-03-11T21:06:06.201Z,40.4
2023-03-11T21:13:38.537Z,40.3
2023-03-11T21:21:10.905Z,40.4
2023-03-11T21:28:43.235Z,40.4
2023-03-11T21:36:15.634Z,40.4
2023-03-11T21:43:48.086Z,40.5
2023-03-11T21:51:20.417Z,40.5
2023-03-11T21:58:52.912Z,40.4
2023-03-11T22:06:25.274Z,40.3
2023-03-11T22:13:57.804Z,40.1
2023-03-11T22:21:30.264Z,40.0
2023-03-11T22:29:04.079Z,39.9
2023-03-11T22:36:36.784Z,39.7
2023-03-11T22:44:09.101Z,39.6
2023-03-11T22:51:41.398Z,39.5
2023-03-11T22:59:13.790Z,39.5
2023-03-11T23:06:46.128Z,39.4
2023-03-11T23:14:18.427Z,39.4
2023-03-11T23:21:50.749Z,39.3
2023-03-11T23:29:23.067Z,39.1
2023-03-11T23:36:55.376Z,39.1
2023-03-11T23:44:27.688Z,38.9
2023-03-11T23:52:00.006Z,38.8
2023-03-11T23:59:32.341Z,38.8
